createdAt,value
2017-07-09T00:00:22.695Z,15.77
2017-07-09T00:00:50.816Z,15.75
2017-07-09T00:01:18.847Z,15.71
2017-07-09T00:01:46.978Z,15.75
2017-07-09T00:02:15.097Z,15.8
2017-07-09T00:02:43.364Z,15.77
2017-07-09T00:03:11.459Z,15.71
2017-07-09T00:03:39.616Z,15.77
2017-07-09T00:04:07.718Z,15.75
2017-07-09T00:04:35.733Z,15.74
2017-07-09T00:05:03.970Z,15.74
2017-07-09T00:05:32.092Z,15.74
2017-07-09T00:06:00.133Z,15.89
2017-07-09T00:06:28.258Z,15.84
2017-07-09T00:06:56.366Z,15.81
2017-07-09T00:07:24.495Z,15.84
2017-07-09T00:07:52.776Z,15.89
2017-07-09T00:08:21.002Z,15.86
2017-07-09T00:08:48.987Z,15.92
2017-07-09T00:09:17.224Z,15.88
2017-07-09T00:09:45.214Z,15.86
2017-07-09T00:10:13.435Z,15.77
2017-07-09T00:10:41.693Z,15.89
2017-07-09T00:11:09.803Z,15.81
2017-07-09T00:11:37.894Z,15.83
2017-07-09T00:12:05.991Z,15.75
2017-07-09T00:12:34.204Z,15.7
2017-07-09T00:13:02.479Z,15.77
2017-07-09T00:13:30.598Z,15.81
2017-07-09T00:13:58.823Z,15.83
2017-07-09T00:14:26.934Z,15.78
2017-07-09T00:14:55.104Z,15.75
2017-07-09T00:15:23.255Z,15.77
2017-07-09T00:15:51.464Z,15.75
2017-07-09T00:16:19.592Z,15.75
2017-07-09T00:16:47.685Z,15.74
2017-07-09T00:17:15.788Z,15.78
2017-07-09T00:17:43.879Z,15.78
2017-07-09T00:18:12.205Z,15.7
2017-07-09T00:18:40.366Z,15.71
2017-07-09T00:19:08.475Z,15.67
2017-07-09T00:19:36.464Z,15.7
2017-07-09T00:20:04.554Z,15.63
2017-07-09T00:20:32.802Z,15.7
2017-07-09T00:21:01.013Z,15.6
2017-07-09T00:21:29.119Z,15.58
2017-07-09T00:21:57.149Z,15.53
2017-07-09T00:22:25.349Z,15.51
2017-07-09T00:22:53.632Z,15.47
2017-07-09T00:23:21.784Z,15.47
2017-07-09T00:23:49.975Z,15.45
2017-07-09T00:24:18.223Z,15.38
2017-07-09T00:24:46.388Z,15.37
2017-07-09T00:25:14.516Z,15.49
2017-07-09T00:25:42.720Z,15.4
2017-07-09T00:26:10.803Z,15.38
2017-07-09T00:26:39.794Z,15.4
2017-07-09T00:27:08.012Z,15.44
2017-07-09T00:27:36.174Z,15.38
2017-07-09T00:28:04.236Z,15.41
2017-07-09T00:28:32.377Z,15.37
2017-07-09T00:29:00.388Z,15.34
2017-07-09T00:29:28.632Z,15.34
2017-07-09T00:29:56.814Z,15.35
2017-07-09T00:30:25.020Z,15.43
2017-07-09T00:30:53.154Z,15.47
2017-07-09T00:31:21.296Z,15.38
2017-07-09T00:31:49.521Z,15.27
2017-07-09T00:32:17.747Z,15.34
2017-07-09T00:32:45.867Z,15.37
2017-07-09T00:33:14.238Z,15.35
2017-07-09T00:33:42.513Z,15.35
2017-07-09T00:34:10.522Z,15.22
2017-07-09T00:34:38.744Z,15.37
2017-07-09T00:35:06.829Z,15.22
2017-07-09T00:35:34.830Z,15.33
2017-07-09T00:36:03.060Z,15.3
2017-07-09T00:36:31.059Z,15.26
2017-07-09T00:36:59.315Z,15.23
2017-07-09T00:37:27.514Z,15.31
2017-07-09T00:37:55.735Z,15.25
2017-07-09T00:38:24.110Z,15.31
2017-07-09T00:38:52.195Z,15.19
2017-07-09T00:39:20.419Z,15.25
2017-07-09T00:39:48.473Z,15.19
2017-07-09T00:40:16.605Z,15.16
2017-07-09T00:40:44.703Z,15.15
2017-07-09T00:41:12.712Z,15.2
2017-07-09T00:41:40.899Z,15.2
2017-07-09T00:42:09.018Z,15.22
2017-07-09T00:42:37.232Z,15.13
2017-07-09T00:43:05.451Z,15.22
2017-07-09T00:43:33.796Z,15.26
2017-07-09T00:44:01.818Z,15.25
2017-07-09T00:44:29.767Z,15.26
2017-07-09T00:44:57.659Z,15.25
2017-07-09T00:45:25.870Z,15.3
2017-07-09T00:45:53.964Z,15.3
2017-07-09T00:46:22.124Z,15.34
2017-07-09T00:46:50.314Z,15.27
2017-07-09T00:47:18.419Z,15.22
2017-07-09T00:47:46.616Z,15.35
2017-07-09T00:48:14.977Z,15.34
2017-07-09T00:48:42.999Z,15.31
2017-07-09T00:49:11.213Z,15.34
2017-07-09T00:49:39.419Z,15.3
2017-07-09T00:50:07.664Z,15.3
2017-07-09T00:50:35.700Z,15.27
2017-07-09T00:51:03.824Z,15.26
2017-07-09T00:51:31.945Z,15.33
2017-07-09T00:52:00.096Z,15.44
2017-07-09T00:52:28.335Z,15.45
2017-07-09T00:52:56.473Z,15.41
2017-07-09T00:53:24.805Z,15.44
2017-07-09T00:53:52.993Z,15.4
2017-07-09T00:54:21.069Z,15.35
2017-07-09T00:54:49.191Z,15.4
2017-07-09T00:55:17.334Z,15.38
2017-07-09T00:55:45.423Z,15.4
2017-07-09T00:56:13.636Z,15.38
2017-07-09T00:56:41.782Z,15.41
2017-07-09T00:57:09.988Z,15.35
2017-07-09T00:57:38.231Z,15.35
2017-07-09T00:58:06.312Z,15.4
2017-07-09T00:58:34.773Z,15.37
2017-07-09T00:59:02.988Z,15.37
2017-07-09T00:59:31.120Z,15.38
2017-07-09T00:59:59.569Z,15.27
2017-07-09T01:00:28.226Z,15.31
2017-07-09T01:00:56.444Z,15.37
2017-07-09T01:01:24.681Z,15.37
2017-07-09T01:01:52.941Z,15.35
2017-07-09T01:02:21.100Z,15.27
2017-07-09T01:02:49.226Z,15.33
2017-07-09T01:03:17.353Z,15.37
2017-07-09T01:03:45.682Z,15.38
2017-07-09T01:04:13.863Z,15.25
2017-07-09T01:04:41.937Z,15.31
2017-07-09T01:05:10.131Z,15.41
2017-07-09T01:05:38.331Z,15.33
2017-07-09T01:06:06.452Z,15.35
2017-07-09T01:06:34.670Z,15.35
2017-07-09T01:07:02.896Z,15.43
2017-07-09T01:07:31.097Z,15.4
2017-07-09T01:07:59.242Z,15.37
2017-07-09T01:08:27.268Z,15.37
2017-07-09T01:08:55.609Z,15.37
2017-07-09T01:09:23.580Z,15.41
2017-07-09T01:09:51.735Z,15.44
2017-07-09T01:10:19.873Z,15.35
2017-07-09T01:10:47.864Z,15.41
2017-07-09T01:11:16.046Z,15.38
2017-07-09T01:11:44.179Z,15.37
2017-07-09T01:12:12.175Z,15.4
2017-07-09T01:12:40.144Z,15.38
2017-07-09T01:13:08.278Z,15.49
2017-07-09T01:13:36.608Z,15.49
2017-07-09T01:14:04.728Z,15.41
2017-07-09T01:14:32.899Z,15.49
2017-07-09T01:15:01.326Z,15.52
2017-07-09T01:15:29.413Z,15.51
2017-07-09T01:15:57.648Z,15.47
2017-07-09T01:16:25.877Z,15.49
2017-07-09T01:16:53.912Z,15.47
2017-07-09T01:17:22.161Z,15.44
2017-07-09T01:17:50.164Z,15.38
2017-07-09T01:18:18.355Z,15.53
2017-07-09T01:18:46.757Z,15.51
2017-07-09T01:19:14.994Z,15.52
2017-07-09T01:19:43.218Z,15.51
2017-07-09T01:20:11.421Z,15.35
2017-07-09T01:20:39.565Z,15.4
2017-07-09T01:21:07.820Z,15.38
2017-07-09T01:21:36.006Z,15.34
2017-07-09T01:22:03.928Z,15.37
2017-07-09T01:22:32.048Z,15.3
2017-07-09T01:23:00.055Z,15.26
2017-07-09T01:23:28.300Z,15.25
2017-07-09T01:23:56.666Z,15.31
2017-07-09T01:24:24.687Z,15.3
2017-07-09T01:24:52.900Z,15.33
2017-07-09T01:25:21.124Z,15.25
2017-07-09T01:25:49.324Z,15.26
2017-07-09T01:26:17.339Z,15.26
2017-07-09T01:26:45.482Z,15.26
2017-07-09T01:27:13.688Z,15.23
2017-07-09T01:27:41.905Z,15.31
2017-07-09T01:28:10.109Z,15.3
2017-07-09T01:28:38.292Z,15.31
2017-07-09T01:29:06.595Z,15.33
2017-07-09T01:29:34.504Z,15.3
2017-07-09T01:30:02.494Z,15.33
2017-07-09T01:30:30.746Z,15.3
2017-07-09T01:30:58.800Z,15.3
2017-07-09T01:31:27.069Z,15.3
2017-07-09T01:31:55.320Z,15.25
2017-07-09T01:32:23.258Z,15.27
2017-07-09T01:32:51.465Z,15.31
2017-07-09T01:33:19.569Z,15.3
2017-07-09T01:33:47.607Z,15.23
2017-07-09T01:34:15.775Z,15.3
2017-07-09T01:34:43.769Z,15.31
2017-07-09T01:35:12.035Z,15.3
2017-07-09T01:35:40.171Z,15.31
2017-07-09T01:36:08.064Z,15.2
2017-07-09T01:36:36.138Z,15.27
2017-07-09T01:37:04.239Z,15.25
2017-07-09T01:37:32.450Z,15.33
2017-07-09T01:38:00.535Z,15.27
2017-07-09T01:38:28.767Z,15.26
2017-07-09T01:38:57.077Z,15.3
2017-07-09T01:39:25.184Z,15.33
2017-07-09T01:39:53.184Z,15.31
2017-07-09T01:40:21.432Z,15.34
2017-07-09T01:40:49.624Z,15.38
2017-07-09T01:41:17.755Z,15.37
2017-07-09T01:41:45.983Z,15.38
2017-07-09T01:42:14.197Z,15.37
2017-07-09T01:42:42.302Z,15.43
2017-07-09T01:43:10.304Z,15.38
2017-07-09T01:43:38.509Z,15.35
2017-07-09T01:44:06.916Z,15.41
2017-07-09T01:44:35.031Z,15.27
2017-07-09T01:45:03.170Z,15.27
2017-07-09T01:45:31.361Z,15.26
2017-07-09T01:45:59.504Z,15.3
2017-07-09T01:46:27.745Z,15.18
2017-07-09T01:46:55.929Z,15.2
2017-07-09T01:47:24.174Z,15.15
2017-07-09T01:47:52.275Z,15.18
2017-07-09T01:48:20.449Z,15.1
2017-07-09T01:48:48.667Z,15.12
2017-07-09T01:49:16.842Z,15.05
2017-07-09T01:49:45.125Z,15.05
2017-07-09T01:50:13.324Z,14.97
2017-07-09T01:50:41.434Z,14.93
2017-07-09T01:51:09.646Z,14.97
2017-07-09T01:51:37.627Z,14.98
2017-07-09T01:52:05.804Z,14.9
2017-07-09T01:52:33.917Z,14.82
2017-07-09T01:53:01.979Z,14.83
2017-07-09T01:53:29.985Z,14.75
2017-07-09T01:53:58.201Z,14.75
2017-07-09T01:54:26.585Z,14.67
2017-07-09T01:54:54.735Z,14.66
2017-07-09T01:55:22.902Z,14.61
2017-07-09T01:55:50.976Z,14.59
2017-07-09T01:56:19.091Z,14.57
2017-07-09T01:56:47.201Z,14.56
2017-07-09T01:57:15.326Z,14.51
2017-07-09T01:57:43.550Z,14.42
2017-07-09T01:58:11.739Z,14.44
2017-07-09T01:58:39.961Z,14.44
2017-07-09T01:59:08.089Z,14.38
2017-07-09T01:59:36.343Z,14.39
2017-07-09T02:00:04.599Z,14.34
2017-07-09T02:00:32.796Z,14.31
2017-07-09T02:01:00.845Z,14.3
2017-07-09T02:01:28.926Z,14.26
2017-07-09T02:01:57.169Z,14.28
2017-07-09T02:02:25.449Z,14.23
2017-07-09T02:02:53.635Z,14.23
2017-07-09T02:03:21.852Z,14.24
2017-07-09T02:03:49.937Z,14.19
2017-07-09T02:04:18.229Z,14.24
2017-07-09T02:04:46.359Z,14.26
2017-07-09T02:05:14.555Z,14.23
2017-07-09T02:05:42.712Z,14.16
2017-07-09T02:06:10.970Z,14.16
2017-07-09T02:06:39.113Z,14.15
2017-07-09T02:07:07.251Z,14.23
2017-07-09T02:07:35.299Z,14.16
2017-07-09T02:08:03.521Z,14.16
2017-07-09T02:08:31.667Z,14.19
2017-07-09T02:08:59.907Z,14.16
2017-07-09T02:09:28.063Z,14.2
2017-07-09T02:09:56.177Z,14.23
2017-07-09T02:10:24.278Z,14.26
2017-07-09T02:10:52.480Z,14.26
2017-07-09T02:11:20.754Z,14.3
2017-07-09T02:11:48.900Z,14.36
2017-07-09T02:12:17.111Z,14.27
2017-07-09T02:12:45.102Z,14.28
2017-07-09T02:13:13.174Z,14.26
2017-07-09T02:13:41.057Z,14.33
2017-07-09T02:14:09.270Z,14.28
2017-07-09T02:14:37.472Z,14.31
2017-07-09T02:15:05.484Z,14.31
2017-07-09T02:15:33.515Z,14.33
2017-07-09T02:16:01.672Z,14.33
2017-07-09T02:16:29.887Z,14.34
2017-07-09T02:16:58.103Z,14.33
2017-07-09T02:17:26.230Z,14.36
2017-07-09T02:17:54.466Z,14.44
2017-07-09T02:18:22.667Z,14.42
2017-07-09T02:18:50.875Z,14.33
2017-07-09T02:19:19.068Z,14.45
2017-07-09T02:19:47.278Z,14.46
2017-07-09T02:20:15.494Z,14.46
2017-07-09T02:20:43.584Z,14.45
2017-07-09T02:21:11.719Z,14.45
2017-07-09T02:21:39.866Z,14.49
2017-07-09T02:22:07.875Z,14.48
2017-07-09T02:22:35.916Z,14.44
2017-07-09T02:23:03.950Z,14.48
2017-07-09T02:23:31.981Z,14.48
2017-07-09T02:24:00.191Z,14.49
2017-07-09T02:24:28.387Z,14.49
2017-07-09T02:24:56.608Z,14.46
2017-07-09T02:25:24.409Z,14.49
2017-07-09T02:25:52.616Z,14.45
2017-07-09T02:26:20.781Z,14.48
2017-07-09T02:26:49.005Z,14.52
2017-07-09T02:27:17.293Z,14.42
2017-07-09T02:27:45.489Z,14.46
2017-07-09T02:28:13.455Z,14.51
2017-07-09T02:28:41.705Z,14.53
2017-07-09T02:29:09.840Z,14.56
2017-07-09T02:29:38.265Z,14.53
2017-07-09T02:30:06.413Z,14.46
2017-07-09T02:30:34.304Z,14.53
2017-07-09T02:31:02.393Z,14.59
2017-07-09T02:31:30.638Z,14.51
2017-07-09T02:31:58.749Z,14.53
2017-07-09T02:32:26.839Z,14.44
2017-07-09T02:32:55.055Z,14.48
2017-07-09T02:33:23.331Z,14.49
2017-07-09T02:33:51.457Z,14.48
2017-07-09T02:34:19.563Z,14.39
2017-07-09T02:34:47.769Z,14.44
2017-07-09T02:35:15.805Z,14.33
2017-07-09T02:35:44.001Z,14.42
2017-07-09T02:36:12.186Z,14.33
2017-07-09T02:36:40.279Z,14.38
2017-07-09T02:37:08.491Z,14.39
2017-07-09T02:37:36.650Z,14.34
2017-07-09T02:38:04.819Z,14.31
2017-07-09T02:38:32.889Z,14.21
2017-07-09T02:39:01.068Z,14.33
2017-07-09T02:39:29.276Z,14.28
2017-07-09T02:39:57.494Z,14.24
2017-07-09T02:40:25.645Z,14.24
2017-07-09T02:40:53.860Z,14.27
2017-07-09T02:41:22.071Z,14.26
2017-07-09T02:41:50.307Z,14.26
2017-07-09T02:42:18.521Z,14.21
2017-07-09T02:42:46.732Z,14.26
2017-07-09T02:43:14.841Z,14.19
2017-07-09T02:43:42.872Z,14.19
2017-07-09T02:44:11.109Z,14.21
2017-07-09T02:44:39.083Z,14.15
2017-07-09T02:45:07.397Z,14.06
2017-07-09T02:45:35.637Z,14.12
2017-07-09T02:46:03.710Z,14.11
2017-07-09T02:46:31.909Z,14.11
2017-07-09T02:47:00.137Z,14.09
2017-07-09T02:47:28.269Z,14.03
2017-07-09T02:47:56.524Z,13.94
2017-07-09T02:48:24.632Z,13.93
2017-07-09T02:48:52.793Z,13.94
2017-07-09T02:49:20.996Z,13.91
2017-07-09T02:49:49.133Z,13.91
2017-07-09T02:50:17.400Z,13.91
2017-07-09T02:50:45.529Z,13.91
2017-07-09T02:51:13.615Z,13.94
2017-07-09T02:51:41.835Z,13.81
2017-07-09T02:52:10.031Z,13.86
2017-07-09T02:52:38.299Z,13.86
2017-07-09T02:53:06.531Z,13.83
2017-07-09T02:53:34.782Z,13.84
2017-07-09T02:54:02.969Z,13.76
2017-07-09T02:54:31.184Z,13.79
2017-07-09T02:54:59.466Z,13.78
2017-07-09T02:55:27.679Z,13.73
2017-07-09T02:55:55.770Z,13.78
2017-07-09T02:56:24.036Z,13.75
2017-07-09T02:56:52.276Z,13.69
2017-07-09T02:57:20.484Z,13.72
2017-07-09T02:57:48.412Z,13.58
2017-07-09T02:58:16.609Z,13.62
2017-07-09T02:58:44.838Z,13.65
2017-07-09T02:59:13.073Z,13.63
2017-07-09T02:59:41.264Z,13.57
2017-07-09T03:00:09.483Z,13.45
2017-07-09T03:00:37.606Z,13.48
2017-07-09T03:01:05.832Z,13.47
2017-07-09T03:01:33.948Z,13.5
2017-07-09T03:02:01.957Z,13.39
2017-07-09T03:02:30.074Z,13.5
2017-07-09T03:02:58.124Z,13.45
2017-07-09T03:03:26.310Z,13.47
2017-07-09T03:03:54.344Z,13.47
2017-07-09T03:04:22.550Z,13.44
2017-07-09T03:04:50.751Z,13.37
2017-07-09T03:05:18.892Z,13.45
2017-07-09T03:05:47.109Z,13.5
2017-07-09T03:06:15.116Z,13.45
2017-07-09T03:06:43.056Z,13.44
2017-07-09T03:07:11.190Z,13.55
2017-07-09T03:07:39.214Z,13.54
2017-07-09T03:08:07.380Z,13.5
2017-07-09T03:08:35.622Z,13.36
2017-07-09T03:09:03.721Z,13.39
2017-07-09T03:09:31.858Z,13.54
2017-07-09T03:09:59.891Z,13.4
2017-07-09T03:10:28.180Z,13.53
2017-07-09T03:10:56.260Z,13.48
2017-07-09T03:11:24.446Z,13.45
2017-07-09T03:11:52.554Z,13.47
2017-07-09T03:12:20.654Z,13.37
2017-07-09T03:12:48.785Z,13.47
2017-07-09T03:13:17.010Z,13.45
2017-07-09T03:13:45.003Z,13.53
2017-07-09T03:14:12.904Z,13.47
2017-07-09T03:14:41.094Z,13.47
2017-07-09T03:15:09.371Z,13.51
2017-07-09T03:15:37.663Z,13.47
2017-07-09T03:16:05.863Z,13.54
2017-07-09T03:16:34.055Z,13.48
2017-07-09T03:17:02.275Z,13.4
2017-07-09T03:17:30.376Z,13.45
2017-07-09T03:17:58.577Z,13.48
2017-07-09T03:18:26.783Z,13.5
2017-07-09T03:18:54.902Z,13.44
2017-07-09T03:19:23.121Z,13.44
2017-07-09T03:19:51.145Z,13.55
2017-07-09T03:20:19.342Z,13.48
2017-07-09T03:20:47.494Z,13.58
2017-07-09T03:23:20.213Z,13.84
2017-07-09T03:23:48.423Z,13.78
2017-07-09T03:24:16.605Z,13.72
2017-07-09T03:24:44.720Z,13.75
2017-07-09T03:25:12.838Z,13.75
2017-07-09T03:25:41.084Z,13.7
2017-07-09T03:26:09.105Z,13.69
2017-07-09T03:26:37.228Z,13.78
2017-07-09T03:27:05.443Z,13.72
2017-07-09T03:27:33.633Z,13.69
2017-07-09T03:28:01.690Z,13.7
2017-07-09T03:28:29.757Z,13.68
2017-07-09T03:28:57.966Z,13.66
2017-07-09T03:29:25.997Z,13.72
2017-07-09T03:29:54.179Z,13.63
2017-07-09T03:30:22.298Z,13.63
2017-07-09T03:30:50.623Z,13.58
2017-07-09T03:31:18.721Z,13.63
2017-07-09T03:31:46.770Z,13.51
2017-07-09T03:32:14.898Z,13.5
2017-07-09T03:32:43.119Z,13.45
2017-07-09T03:33:11.230Z,13.47
2017-07-09T03:33:39.254Z,13.42
2017-07-09T03:34:07.376Z,13.51
2017-07-09T03:34:35.592Z,13.57
2017-07-09T03:35:03.799Z,13.51
2017-07-09T03:35:32.120Z,13.66
2017-07-09T03:36:00.217Z,13.73
2017-07-09T03:36:28.326Z,13.78
2017-07-09T03:36:56.534Z,13.73
2017-07-09T03:37:24.754Z,13.93
2017-07-09T03:37:52.837Z,13.97
2017-07-09T03:38:21.075Z,13.95
2017-07-09T03:38:49.245Z,14.11
2017-07-09T03:39:17.348Z,14.12
2017-07-09T03:39:45.431Z,14.11
2017-07-09T03:40:13.542Z,14.19
2017-07-09T03:40:41.804Z,14.19
2017-07-09T03:41:09.959Z,14.13
2017-07-09T03:41:38.164Z,14.16
2017-07-09T03:42:06.275Z,14.23
2017-07-09T03:42:34.432Z,14.21
2017-07-09T03:43:02.676Z,14.23
2017-07-09T03:43:30.878Z,14.21
2017-07-09T03:43:58.891Z,14.24
2017-07-09T03:44:27.084Z,14.3
2017-07-09T03:44:55.274Z,14.19
2017-07-09T03:45:23.394Z,14.3
2017-07-09T03:45:51.729Z,14.3
2017-07-09T03:46:19.954Z,14.34
2017-07-09T03:46:48.129Z,14.3
2017-07-09T03:47:16.240Z,14.36
2017-07-09T03:47:44.286Z,14.39
2017-07-09T03:48:12.516Z,14.31
2017-07-09T03:48:40.761Z,14.39
2017-07-09T03:49:08.894Z,14.38
2017-07-09T03:49:37.043Z,14.36
2017-07-09T03:50:05.341Z,14.36
2017-07-09T03:50:33.408Z,14.31
2017-07-09T03:51:01.672Z,14.3
2017-07-09T03:51:29.904Z,14.31
2017-07-09T03:51:58.085Z,14.24
2017-07-09T03:52:26.192Z,14.2
2017-07-09T03:52:54.382Z,14.15
2017-07-09T03:53:22.493Z,14.16
2017-07-09T03:53:50.479Z,14.09
2017-07-09T03:54:18.598Z,14.13
2017-07-09T03:54:46.610Z,13.97
2017-07-09T03:55:14.667Z,13.95
2017-07-09T03:55:42.831Z,13.94
2017-07-09T03:56:11.275Z,13.9
2017-07-09T03:56:39.475Z,13.91
2017-07-09T03:57:07.582Z,13.95
2017-07-09T03:57:35.685Z,13.94
2017-07-09T03:58:03.927Z,14.01
2017-07-09T03:58:31.970Z,13.95
2017-07-09T03:59:00.199Z,13.9
2017-07-09T03:59:28.270Z,13.87
2017-07-09T03:59:56.230Z,13.86
2017-07-09T04:00:24.229Z,13.88
2017-07-09T04:00:52.614Z,13.75
2017-07-09T04:01:20.724Z,13.83
2017-07-09T04:01:48.927Z,13.73
2017-07-09T04:02:17.062Z,13.78
2017-07-09T04:02:45.095Z,13.68
2017-07-09T04:03:13.335Z,13.63
2017-07-09T04:03:41.435Z,13.69
2017-07-09T04:04:09.662Z,13.62
2017-07-09T04:04:37.919Z,13.51
2017-07-09T04:05:06.009Z,13.66
2017-07-09T04:05:34.243Z,13.62
2017-07-09T04:06:02.340Z,13.7
2017-07-09T04:06:30.553Z,13.62
2017-07-09T04:06:58.671Z,13.69
2017-07-09T04:07:26.887Z,13.65
2017-07-09T04:07:55.087Z,13.6
2017-07-09T04:08:23.213Z,13.55
2017-07-09T04:08:51.457Z,13.5
2017-07-09T04:09:19.565Z,13.47
2017-07-09T04:09:47.752Z,13.51
2017-07-09T04:10:15.843Z,13.53
2017-07-09T04:10:44.073Z,13.5
2017-07-09T04:11:12.436Z,13.48
2017-07-09T04:11:40.625Z,13.4
2017-07-09T04:12:08.745Z,13.4
2017-07-09T04:12:36.758Z,13.44
2017-07-09T04:13:04.898Z,13.44
2017-07-09T04:13:33.129Z,13.36
2017-07-09T04:14:01.273Z,13.53
2017-07-09T04:14:29.447Z,13.45
2017-07-09T04:14:57.575Z,13.4
2017-07-09T04:15:25.697Z,13.47
2017-07-09T04:15:53.947Z,13.47
2017-07-09T04:16:22.283Z,13.36
2017-07-09T04:16:50.517Z,13.48
2017-07-09T04:17:18.706Z,13.37
2017-07-09T04:17:46.952Z,13.51
2017-07-09T04:18:15.092Z,13.39
2017-07-09T04:18:43.221Z,13.42
2017-07-09T04:19:11.308Z,13.31
2017-07-09T04:19:39.407Z,13.31
2017-07-09T04:20:07.342Z,13.32
2017-07-09T04:20:35.484Z,13.27
2017-07-09T04:21:03.494Z,13.25
2017-07-09T04:21:31.735Z,13.24
2017-07-09T04:21:59.666Z,13.21
2017-07-09T04:22:27.835Z,13.21
2017-07-09T04:22:56.012Z,13.25
2017-07-09T04:23:23.966Z,13.14
2017-07-09T04:23:52.094Z,13.2
2017-07-09T04:24:20.192Z,13.17
2017-07-09T04:24:48.235Z,13.14
2017-07-09T04:25:16.478Z,13.16
2017-07-09T04:25:44.677Z,13.17
2017-07-09T04:26:13.141Z,13.16
2017-07-09T04:26:41.373Z,13.11
2017-07-09T04:27:09.600Z,13.13
2017-07-09T04:27:37.827Z,13.09
2017-07-09T04:28:06.053Z,13.09
2017-07-09T04:28:34.146Z,13.06
2017-07-09T04:29:02.391Z,13.03
2017-07-09T04:29:30.526Z,13.07
2017-07-09T04:29:58.561Z,13.07
2017-07-09T04:30:26.661Z,13.1
2017-07-09T04:30:54.778Z,12.92
2017-07-09T04:31:22.944Z,12.94
2017-07-09T04:31:51.136Z,12.95
2017-07-09T04:32:19.349Z,12.98
2017-07-09T04:32:47.468Z,13.01
2017-07-09T04:33:15.582Z,12.94
2017-07-09T04:33:43.773Z,12.99
2017-07-09T04:34:11.925Z,12.98
2017-07-09T04:34:40.024Z,12.96
2017-07-09T04:35:08.242Z,12.95
2017-07-09T04:35:36.340Z,12.99
2017-07-09T04:36:04.564Z,12.91
2017-07-09T04:36:32.814Z,12.88
2017-07-09T04:37:01.027Z,12.91
2017-07-09T04:37:29.059Z,12.94
2017-07-09T04:37:57.068Z,12.98
2017-07-09T04:38:25.216Z,12.89
2017-07-09T04:38:53.341Z,12.88
2017-07-09T04:39:21.548Z,13.03
2017-07-09T04:39:49.563Z,12.94
2017-07-09T04:40:17.704Z,12.95
2017-07-09T04:40:45.872Z,12.99
2017-07-09T04:41:13.891Z,13.09
2017-07-09T04:41:42.264Z,13.09
2017-07-09T04:42:10.463Z,13.02
2017-07-09T04:42:38.453Z,13.09
2017-07-09T04:43:06.635Z,13.13
2017-07-09T04:43:34.894Z,13.25
2017-07-09T04:44:02.878Z,13.24
2017-07-09T04:44:31.096Z,13.35
2017-07-09T04:44:59.263Z,13.39
2017-07-09T04:45:27.402Z,13.44
2017-07-09T04:45:55.629Z,13.45
2017-07-09T04:46:23.543Z,13.5
2017-07-09T04:46:51.798Z,13.48
2017-07-09T04:47:20.021Z,13.51
2017-07-09T04:47:48.024Z,13.48
2017-07-09T04:48:16.148Z,13.51
2017-07-09T04:48:44.362Z,13.5
2017-07-09T04:49:12.491Z,13.47
2017-07-09T04:49:40.621Z,13.47
2017-07-09T04:50:08.795Z,13.51
2017-07-09T04:50:36.862Z,13.63
2017-07-09T04:51:04.983Z,13.66
2017-07-09T04:51:33.266Z,13.72
2017-07-09T04:52:01.237Z,13.79
2017-07-09T04:52:29.310Z,13.75
2017-07-09T04:52:57.388Z,13.83
2017-07-09T04:53:25.629Z,13.73
2017-07-09T04:53:53.715Z,13.76
2017-07-09T04:54:21.872Z,13.78
2017-07-09T04:54:50.009Z,13.79
2017-07-09T04:55:18.092Z,13.84
2017-07-09T04:55:46.205Z,13.86
2017-07-09T04:56:14.442Z,13.93
2017-07-09T04:56:42.790Z,13.88
2017-07-09T04:57:10.911Z,13.94
2017-07-09T04:57:39.128Z,13.94
2017-07-09T04:58:07.207Z,13.9
2017-07-09T04:58:35.409Z,13.88
2017-07-09T04:59:03.412Z,13.9
2017-07-09T04:59:31.581Z,13.9
2017-07-09T04:59:59.693Z,13.91
2017-07-09T05:00:27.879Z,13.94
2017-07-09T05:00:56.003Z,13.87
2017-07-09T05:01:24.239Z,13.88
2017-07-09T05:01:52.489Z,13.9
2017-07-09T05:02:20.642Z,13.84
2017-07-09T05:02:48.855Z,13.86
2017-07-09T05:03:16.840Z,13.91
2017-07-09T05:03:44.777Z,13.87
2017-07-09T05:04:12.897Z,13.84
2017-07-09T05:04:40.983Z,13.83
2017-07-09T05:05:08.938Z,13.76
2017-07-09T05:05:37.142Z,13.78
2017-07-09T05:06:05.370Z,13.79
2017-07-09T05:06:33.468Z,13.73
2017-07-09T05:07:01.915Z,13.75
2017-07-09T05:07:30.053Z,13.76
2017-07-09T05:07:58.261Z,13.83
2017-07-09T05:08:26.503Z,13.84
2017-07-09T05:08:54.713Z,13.87
2017-07-09T05:09:22.786Z,13.91
2017-07-09T05:09:50.826Z,13.88
2017-07-09T05:10:19.060Z,13.91
2017-07-09T05:10:47.164Z,13.86
2017-07-09T05:11:15.412Z,13.83
2017-07-09T05:11:43.538Z,13.9
2017-07-09T05:12:11.694Z,13.88
2017-07-09T05:12:39.805Z,13.81
2017-07-09T05:13:08.037Z,13.69
2017-07-09T05:13:36.313Z,13.69
2017-07-09T05:14:04.525Z,13.73
2017-07-09T05:14:32.720Z,13.75
2017-07-09T05:15:00.927Z,13.66
2017-07-09T05:15:29.077Z,13.65
2017-07-09T05:15:57.069Z,13.63
2017-07-09T05:16:25.146Z,13.53
2017-07-09T05:16:53.612Z,13.48
2017-07-09T05:17:21.764Z,13.53
2017-07-09T05:17:49.989Z,13.48
2017-07-09T05:18:18.214Z,13.5
2017-07-09T05:18:46.322Z,13.42
2017-07-09T05:19:14.330Z,13.5
2017-07-09T05:19:42.506Z,13.55
2017-07-09T05:20:10.645Z,13.45
2017-07-09T05:20:38.863Z,13.39
2017-07-09T05:21:07.133Z,13.44
2017-07-09T05:21:35.225Z,13.44
2017-07-09T05:22:03.484Z,13.36
2017-07-09T05:22:31.520Z,13.28
2017-07-09T05:22:59.632Z,13.28
2017-07-09T05:23:27.862Z,13.24
2017-07-09T05:23:56.109Z,13.17
2017-07-09T05:24:24.295Z,13.13
2017-07-09T05:24:52.441Z,13.11
2017-07-09T05:25:20.534Z,13.14
2017-07-09T05:25:48.707Z,13.11
2017-07-09T05:26:16.679Z,13.09
2017-07-09T05:26:44.696Z,13.11
2017-07-09T05:27:12.962Z,13.11
2017-07-09T05:27:41.012Z,13.03
2017-07-09T05:28:09.201Z,13.13
2017-07-09T05:28:37.431Z,13.02
2017-07-09T05:29:05.538Z,13.03
2017-07-09T05:29:33.719Z,12.99
2017-07-09T05:30:01.911Z,13.03
2017-07-09T05:30:30.119Z,13.09
2017-07-09T05:30:58.248Z,13.11
2017-07-09T05:31:26.329Z,13.1
2017-07-09T05:31:54.459Z,13.02
2017-07-09T05:32:22.766Z,13.07
2017-07-09T05:32:50.999Z,12.98
2017-07-09T05:33:19.150Z,12.92
2017-07-09T05:33:47.381Z,13.01
2017-07-09T05:34:15.512Z,12.99
2017-07-09T05:34:43.617Z,12.96
2017-07-09T05:35:11.808Z,13.02
2017-07-09T05:35:40.051Z,13.01
2017-07-09T05:36:08.263Z,13.01
2017-07-09T05:36:36.362Z,12.99
2017-07-09T05:37:04.573Z,12.96
2017-07-09T05:37:32.882Z,12.96
2017-07-09T05:38:01.053Z,12.89
2017-07-09T05:38:29.197Z,12.99
2017-07-09T05:38:57.420Z,12.91
2017-07-09T05:39:25.518Z,12.86
2017-07-09T05:39:53.656Z,12.89
2017-07-09T05:40:21.859Z,12.96
2017-07-09T05:40:49.956Z,12.94
2017-07-09T05:41:18.123Z,12.96
2017-07-09T05:41:46.364Z,12.92
2017-07-09T05:42:14.533Z,12.92
2017-07-09T05:42:42.677Z,12.98
2017-07-09T05:43:10.672Z,12.98
2017-07-09T05:43:38.899Z,12.92
2017-07-09T05:44:07.111Z,12.94
2017-07-09T05:44:35.138Z,12.94
2017-07-09T05:45:03.160Z,12.88
2017-07-09T05:45:31.357Z,12.98
2017-07-09T05:45:59.455Z,12.91
2017-07-09T05:46:27.659Z,12.86
2017-07-09T05:46:55.880Z,12.84
2017-07-09T05:47:24.210Z,12.88
2017-07-09T05:47:52.427Z,12.89
2017-07-09T05:48:20.553Z,12.94
2017-07-09T05:48:48.669Z,12.95
2017-07-09T05:49:16.838Z,12.91
2017-07-09T05:49:44.938Z,12.92
2017-07-09T05:50:13.036Z,12.88
2017-07-09T05:50:41.204Z,12.99
2017-07-09T05:51:09.164Z,12.88
2017-07-09T05:51:37.365Z,12.88
2017-07-09T05:52:05.580Z,12.96
2017-07-09T05:52:33.890Z,12.88
2017-07-09T05:53:01.967Z,12.88
2017-07-09T05:53:30.113Z,12.8
2017-07-09T05:53:58.237Z,12.81
2017-07-09T05:54:26.396Z,12.81
2017-07-09T05:54:54.594Z,12.81
2017-07-09T05:55:22.602Z,12.76
2017-07-09T05:55:50.730Z,12.71
2017-07-09T05:56:18.790Z,12.77
2017-07-09T05:56:46.965Z,12.78
2017-07-09T05:57:15.169Z,12.74
2017-07-09T05:57:43.481Z,12.71
2017-07-09T05:58:11.670Z,12.63
2017-07-09T05:58:39.841Z,12.63
2017-07-09T05:59:08.048Z,12.63
2017-07-09T05:59:36.131Z,12.69
2017-07-09T06:00:04.338Z,12.66
2017-07-09T06:00:32.755Z,12.65
2017-07-09T06:01:01.380Z,12.66
2017-07-09T06:01:29.838Z,12.7
2017-07-09T06:01:58.437Z,12.65
2017-07-09T06:02:26.930Z,12.62
2017-07-09T06:02:55.104Z,12.61
2017-07-09T06:03:23.256Z,12.61
2017-07-09T06:03:51.423Z,12.63
2017-07-09T06:04:19.441Z,12.63
2017-07-09T06:04:47.502Z,12.62
2017-07-09T06:05:15.592Z,12.65
2017-07-09T06:05:43.790Z,12.61
2017-07-09T06:06:11.893Z,12.66